sensor_id;sensor_type;location;lat;lon;timestamp;temperature;humidity
41481;DHT22;27217;51.220;5.308;2022-10-20T00:00:58;11.70;99.90
41481;DHT22;27217;51.220;5.308;2022-10-20T00:03:27;11.60;99.90
41481;DHT22;27217;51.220;5.308;2022-10-20T00:05:54;11.60;99.90
41481;DHT22;27217;51.220;5.308;2022-10-20T00:08:30;11.70;99.90
41481;DHT22;27217;51.220;5.308;2022-10-20T00:10:56;11.70;99.90
41481;DHT22;27217;51.220;5.308;2022-10-20T00:13:22;11.60;99.90
41481;DHT22;27217;51.220;5.308;2022-10-20T00:15:49;11.60;99.90
41481;DHT22;27217;51.220;5.308;2022-10-20T00:18:16;11.50;99.90
41481;DHT22;27217;51.220;5.308;2022-10-20T00:20:42;11.50;99.90
41481;DHT22;27217;51.220;5.308;2022-10-20T00:23:07;11.70;99.90
41481;DHT22;27217;51.220;5.308;2022-10-20T00:25:34;11.70;99.90
41481;DHT22;27217;51.220;5.308;2022-10-20T00:27:59;11.70;99.90
41481;DHT22;27217;51.220;5.308;2022-10-20T00:30:25;11.60;99.90
41481;DHT22;27217;51.220;5.308;2022-10-20T00:32:51;11.70;99.90
41481;DHT22;27217;51.220;5.308;2022-10-20T00:35:16;11.70;99.90
41481;DHT22;27217;51.220;5.308;2022-10-20T00:37:43;11.70;99.90
41481;DHT22;27217;51.220;5.308;2022-10-20T00:40:09;11.70;99.90
41481;DHT22;27217;51.220;5.308;2022-10-20T00:42:37;11.70;99.90
41481;DHT22;27217;51.220;5.308;2022-10-20T00:45:11;11.70;99.90
41481;DHT22;27217;51.220;5.308;2022-10-20T00:47:46;11.90;99.90
41481;DHT22;27217;51.220;5.308;2022-10-20T00:50:21;12.10;99.90
41481;DHT22;27217;51.220;5.308;2022-10-20T00:52:50;12.00;99.90
41481;DHT22;27217;51.220;5.308;2022-10-20T00:55:21;12.00;99.90
41481;DHT22;27217;51.220;5.308;2022-10-20T00:57:49;12.10;99.90
41481;DHT22;27217;51.220;5.308;2022-10-20T01:00:16;11.90;99.90
41481;DHT22;27217;51.220;5.308;2022-10-20T01:02:43;11.90;99.90
41481;DHT22;27217;51.220;5.308;2022-10-20T01:05:10;11.80;99.90
41481;DHT22;27217;51.220;5.308;2022-10-20T01:07:36;11.70;99.90
41481;DHT22;27217;51.220;5.308;2022-10-20T01:10:03;11.70;99.90
41481;DHT22;27217;51.220;5.308;2022-10-20T01:12:50;11.50;99.90
41481;DHT22;27217;51.220;5.308;2022-10-20T01:15:43;11.30;99.90
41481;DHT22;27217;51.220;5.308;2022-10-20T01:23:47;11.30;99.90
41481;DHT22;27217;51.220;5.308;2022-10-20T01:28:59;11.20;99.90
41481;DHT22;27217;51.220;5.308;2022-10-20T01:39:41;11.20;99.90
41481;DHT22;27217;51.220;5.308;2022-10-20T01:42:17;11.30;99.90
41481;DHT22;27217;51.220;5.308;2022-10-20T01:44:45;11.30;99.90
41481;DHT22;27217;51.220;5.308;2022-10-20T01:47:13;11.30;99.90
41481;DHT22;27217;51.220;5.308;2022-10-20T01:49:46;11.50;99.90
41481;DHT22;27217;51.220;5.308;2022-10-20T01:52:14;11.60;99.90
41481;DHT22;27217;51.220;5.308;2022-10-20T01:54:40;11.50;99.90
41481;DHT22;27217;51.220;5.308;2022-10-20T02:00:13;11.50;99.90
41481;DHT22;27217;51.220;5.308;2022-10-20T02:03:21;11.40;99.90
41481;DHT22;27217;51.220;5.308;2022-10-20T02:08:50;11.40;99.90
41481;DHT22;27217;51.220;5.308;2022-10-20T02:11:35;11.50;99.90
41481;DHT22;27217;51.220;5.308;2022-10-20T02:14:05;11.70;99.90
41481;DHT22;27217;51.220;5.308;2022-10-20T02:16:35;11.70;99.90
41481;DHT22;27217;51.220;5.308;2022-10-20T02:19:03;11.60;99.90
41481;DHT22;27217;51.220;5.308;2022-10-20T02:21:30;11.60;99.90
41481;DHT22;27217;51.220;5.308;2022-10-20T02:23:59;11.60;99.90
41481;DHT22;27217;51.220;5.308;2022-10-20T02:26:28;11.80;99.90
41481;DHT22;27217;51.220;5.308;2022-10-20T02:28:59;11.60;99.90
41481;DHT22;27217;51.220;5.308;2022-10-20T02:31:25;11.40;99.90
41481;DHT22;27217;51.220;5.308;2022-10-20T02:33:53;11.50;99.90
41481;DHT22;27217;51.220;5.308;2022-10-20T02:36:25;11.50;99.90
41481;DHT22;27217;51.220;5.308;2022-10-20T02:38:52;11.30;99.90
41481;DHT22;27217;51.220;5.308;2022-10-20T02:41:17;11.30;99.90
41481;DHT22;27217;51.220;5.308;2022-10-20T02:43:43;11.40;99.90
41481;DHT22;27217;51.220;5.308;2022-10-20T02:46:09;11.40;99.90
41481;DHT22;27217;51.220;5.308;2022-10-20T02:48:35;11.40;99.90
41481;DHT22;27217;51.220;5.308;2022-10-20T02:51:05;11.40;99.90
41481;DHT22;27217;51.220;5.308;2022-10-20T02:53:32;11.50;99.90
41481;DHT22;27217;51.220;5.308;2022-10-20T02:55:58;11.50;99.90
41481;DHT22;27217;51.220;5.308;2022-10-20T02:58:24;11.60;99.90
41481;DHT22;27217;51.220;5.308;2022-10-20T03:00:50;11.60;99.90
41481;DHT22;27217;51.220;5.308;2022-10-20T03:03:17;11.60;99.90
41481;DHT22;27217;51.220;5.308;2022-10-20T03:05:43;11.60;99.90
41481;DHT22;27217;51.220;5.308;2022-10-20T03:08:10;11.60;99.90
41481;DHT22;27217;51.220;5.308;2022-10-20T03:10:37;11.60;99.90
41481;DHT22;27217;51.220;5.308;2022-10-20T03:13:04;11.60;99.90
41481;DHT22;27217;51.220;5.308;2022-10-20T03:15:30;11.60;99.90
41481;DHT22;27217;51.220;5.308;2022-10-20T03:17:56;11.70;99.90
41481;DHT22;27217;51.220;5.308;2022-10-20T03:20:22;11.70;99.90
41481;DHT22;27217;51.220;5.308;2022-10-20T03:22:48;11.60;99.90
41481;DHT22;27217;51.220;5.308;2022-10-20T03:25:17;11.60;99.90
41481;DHT22;27217;51.220;5.308;2022-10-20T03:27:42;11.70;99.90
41481;DHT22;27217;51.220;5.308;2022-10-20T03:30:09;11.70;99.90
41481;DHT22;27217;51.220;5.308;2022-10-20T03:32:35;11.70;99.90
41481;DHT22;27217;51.220;5.308;2022-10-20T03:35:01;11.80;99.90
41481;DHT22;27217;51.220;5.308;2022-10-20T03:37:27;11.90;99.90
41481;DHT22;27217;51.220;5.308;2022-10-20T03:39:52;11.90;99.90
41481;DHT22;27217;51.220;5.308;2022-10-20T03:42:18;11.90;99.90
41481;DHT22;27217;51.220;5.308;2022-10-20T03:44:44;12.00;99.90
41481;DHT22;27217;51.220;5.308;2022-10-20T03:47:12;12.00;99.90
41481;DHT22;27217;51.220;5.308;2022-10-20T03:49:38;12.00;99.90
41481;DHT22;27217;51.220;5.308;2022-10-20T03:52:05;11.90;99.90
41481;DHT22;27217;51.220;5.308;2022-10-20T03:54:31;12.00;99.90
41481;DHT22;27217;51.220;5.308;2022-10-20T03:56:56;11.80;99.90
41481;DHT22;27217;51.220;5.308;2022-10-20T03:59:22;11.90;99.90
41481;DHT22;27217;51.220;5.308;2022-10-20T04:01:49;11.80;99.90
41481;DHT22;27217;51.220;5.308;2022-10-20T04:04:15;11.80;99.90
41481;DHT22;27217;51.220;5.308;2022-10-20T04:06:41;11.90;99.90
41481;DHT22;27217;51.220;5.308;2022-10-20T04:09:07;11.80;99.90
41481;DHT22;27217;51.220;5.308;2022-10-20T04:11:32;12.10;99.90
41481;DHT22;27217;51.220;5.308;2022-10-20T04:13:58;12.10;99.90
41481;DHT22;27217;51.220;5.308;2022-10-20T04:16:24;12.10;99.90
41481;DHT22;27217;51.220;5.308;2022-10-20T04:18:54;12.10;99.90
41481;DHT22;27217;51.220;5.308;2022-10-20T04:21:20;12.10;99.90
41481;DHT22;27217;51.220;5.308;2022-10-20T04:23:46;12.10;99.90
41481;DHT22;27217;51.220;5.308;2022-10-20T04:26:14;12.00;99.90
41481;DHT22;27217;51.220;5.308;2022-10-20T04:28:40;12.00;99.90
41481;DHT22;27217;51.220;5.308;2022-10-20T04:31:07;12.00;99.90
41481;DHT22;27217;51.220;5.308;2022-10-20T04:33:34;12.20;99.90
41481;DHT22;27217;51.220;5.308;2022-10-20T04:36:05;12.20;99.90
41481;DHT22;27217;51.220;5.308;2022-10-20T04:38:33;12.10;99.90
41481;DHT22;27217;51.220;5.308;2022-10-20T04:41:01;12.00;99.90
41481;DHT22;27217;51.220;5.308;2022-10-20T04:43:29;11.90;99.90
41481;DHT22;27217;51.220;5.308;2022-10-20T04:46:04;11.90;99.90
41481;DHT22;27217;51.220;5.308;2022-10-20T04:48:30;11.90;99.90
41481;DHT22;27217;51.220;5.308;2022-10-20T04:51:03;11.90;99.90
41481;DHT22;27217;51.220;5.308;2022-10-20T04:53:30;11.90;99.90
41481;DHT22;27217;51.220;5.308;2022-10-20T04:55:56;12.00;99.90
41481;DHT22;27217;51.220;5.308;2022-10-20T04:58:23;12.00;99.90
41481;DHT22;27217;51.220;5.308;2022-10-20T05:01:00;11.90;99.90
41481;DHT22;27217;51.220;5.308;2022-10-20T05:03:26;12.00;99.90
41481;DHT22;27217;51.220;5.308;2022-10-20T05:05:52;11.90;99.90
41481;DHT22;27217;51.220;5.308;2022-10-20T05:08:18;11.80;99.90
41481;DHT22;27217;51.220;5.308;2022-10-20T05:10:43;11.80;99.90
41481;DHT22;27217;51.220;5.308;2022-10-20T05:13:10;11.80;99.90
41481;DHT22;27217;51.220;5.308;2022-10-20T05:15:35;11.80;99.90
41481;DHT22;27217;51.220;5.308;2022-10-20T05:18:02;11.80;99.90
41481;DHT22;27217;51.220;5.308;2022-10-20T05:20:27;11.80;99.90
41481;DHT22;27217;51.220;5.308;2022-10-20T05:22:54;11.70;99.90
41481;DHT22;27217;51.220;5.308;2022-10-20T05:25:19;11.90;99.90
41481;DHT22;27217;51.220;5.308;2022-10-20T05:27:45;11.80;99.90
41481;DHT22;27217;51.220;5.308;2022-10-20T05:30:11;11.70;99.90
41481;DHT22;27217;51.220;5.308;2022-10-20T05:32:37;11.80;99.90
41481;DHT22;27217;51.220;5.308;2022-10-20T05:35:03;11.80;99.90
41481;DHT22;27217;51.220;5.308;2022-10-20T05:37:29;11.80;99.90
41481;DHT22;27217;51.220;5.308;2022-10-20T05:39:55;11.80;99.90
41481;DHT22;27217;51.220;5.308;2022-10-20T05:42:21;11.80;99.90
41481;DHT22;27217;51.220;5.308;2022-10-20T05:44:46;11.80;99.90
41481;DHT22;27217;51.220;5.308;2022-10-20T05:47:12;11.80;99.90
41481;DHT22;27217;51.220;5.308;2022-10-20T05:49:37;11.90;99.90
41481;DHT22;27217;51.220;5.308;2022-10-20T05:52:04;12.20;99.90
41481;DHT22;27217;51.220;5.308;2022-10-20T05:54:30;12.10;99.90
41481;DHT22;27217;51.220;5.308;2022-10-20T05:56:56;12.10;99.90
41481;DHT22;27217;51.220;5.308;2022-10-20T05:59:22;12.20;99.90
41481;DHT22;27217;51.220;5.308;2022-10-20T06:01:48;12.10;99.90
41481;DHT22;27217;51.220;5.308;2022-10-20T06:04:16;12.10;99.90
41481;DHT22;27217;51.220;5.308;2022-10-20T06:06:45;12.20;99.90
41481;DHT22;27217;51.220;5.308;2022-10-20T06:09:13;12.30;99.90
41481;DHT22;27217;51.220;5.308;2022-10-20T06:11:39;12.20;99.90
41481;DHT22;27217;51.220;5.308;2022-10-20T06:16:51;12.20;99.90
41481;DHT22;27217;51.220;5.308;2022-10-20T06:19:24;12.00;99.90
41481;DHT22;27217;51.220;5.308;2022-10-20T06:22:09;12.20;99.90
41481;DHT22;27217;51.220;5.308;2022-10-20T06:25:24;12.20;99.90
41481;DHT22;27217;51.220;5.308;2022-10-20T06:27:50;12.20;99.90
41481;DHT22;27217;51.220;5.308;2022-10-20T06:30:16;12.20;99.90
41481;DHT22;27217;51.220;5.308;2022-10-20T06:32:42;12.20;99.90
41481;DHT22;27217;51.220;5.308;2022-10-20T06:35:08;12.20;99.90
41481;DHT22;27217;51.220;5.308;2022-10-20T06:37:34;12.30;99.90
41481;DHT22;27217;51.220;5.308;2022-10-20T06:39:59;12.10;99.90
41481;DHT22;27217;51.220;5.308;2022-10-20T06:42:25;12.10;99.90
41481;DHT22;27217;51.220;5.308;2022-10-20T06:44:50;12.20;99.90
41481;DHT22;27217;51.220;5.308;2022-10-20T06:47:17;12.20;99.90
41481;DHT22;27217;51.220;5.308;2022-10-20T06:49:42;12.20;99.90
41481;DHT22;27217;51.220;5.308;2022-10-20T06:52:08;12.20;99.90
41481;DHT22;27217;51.220;5.308;2022-10-20T06:54:40;12.20;99.90
41481;DHT22;27217;51.220;5.308;2022-10-20T06:57:25;12.50;99.90
41481;DHT22;27217;51.220;5.308;2022-10-20T06:59:51;12.50;99.90
41481;DHT22;27217;51.220;5.308;2022-10-20T07:02:17;12.50;99.90
41481;DHT22;27217;51.220;5.308;2022-10-20T07:04:43;12.70;99.90
41481;DHT22;27217;51.220;5.308;2022-10-20T07:07:09;12.80;99.90
41481;DHT22;27217;51.220;5.308;2022-10-20T07:09:35;12.80;99.90
41481;DHT22;27217;51.220;5.308;2022-10-20T07:12:03;12.80;99.90
41481;DHT22;27217;51.220;5.308;2022-10-20T07:14:29;12.80;99.90
41481;DHT22;27217;51.220;5.308;2022-10-20T07:16:55;13.00;99.90
41481;DHT22;27217;51.220;5.308;2022-10-20T07:19:22;13.20;99.90
41481;DHT22;27217;51.220;5.308;2022-10-20T07:21:47;13.10;99.90
41481;DHT22;27217;51.220;5.308;2022-10-20T07:24:14;13.00;99.90
41481;DHT22;27217;51.220;5.308;2022-10-20T07:26:41;13.10;99.90
41481;DHT22;27217;51.220;5.308;2022-10-20T07:29:08;13.20;99.90
41481;DHT22;27217;51.220;5.308;2022-10-20T07:31:42;13.30;99.90
41481;DHT22;27217;51.220;5.308;2022-10-20T07:34:10;13.40;99.90
41481;DHT22;27217;51.220;5.308;2022-10-20T07:36:39;13.50;99.90
41481;DHT22;27217;51.220;5.308;2022-10-20T07:39:06;13.50;99.90
41481;DHT22;27217;51.220;5.308;2022-10-20T07:41:33;13.50;99.90
41481;DHT22;27217;51.220;5.308;2022-10-20T07:43:59;13.50;99.90
41481;DHT22;27217;51.220;5.308;2022-10-20T07:46:25;13.70;99.90
41481;DHT22;27217;51.220;5.308;2022-10-20T07:48:51;13.80;99.90
41481;DHT22;27217;51.220;5.308;2022-10-20T07:51:27;13.70;99.90
41481;DHT22;27217;51.220;5.308;2022-10-20T07:54:03;13.80;99.90
41481;DHT22;27217;51.220;5.308;2022-10-20T07:56:36;13.90;99.90
41481;DHT22;27217;51.220;5.308;2022-10-20T07:59:05;14.10;99.90
41481;DHT22;27217;51.220;5.308;2022-10-20T08:01:37;14.10;99.90
41481;DHT22;27217;51.220;5.308;2022-10-20T08:04:03;14.30;99.90
41481;DHT22;27217;51.220;5.308;2022-10-20T08:06:29;14.30;99.90
41481;DHT22;27217;51.220;5.308;2022-10-20T08:08:55;14.20;99.90
41481;DHT22;27217;51.220;5.308;2022-10-20T08:11:21;14.30;99.90
41481;DHT22;27217;51.220;5.308;2022-10-20T08:13:46;14.50;99.90
41481;DHT22;27217;51.220;5.308;2022-10-20T08:16:13;14.60;99.90
41481;DHT22;27217;51.220;5.308;2022-10-20T08:18:40;14.80;99.90
41481;DHT22;27217;51.220;5.308;2022-10-20T08:21:16;15.10;99.90
41481;DHT22;27217;51.220;5.308;2022-10-20T08:23:45;15.20;99.90
41481;DHT22;27217;51.220;5.308;2022-10-20T08:26:17;15.20;99.90
41481;DHT22;27217;51.220;5.308;2022-10-20T08:28:43;15.30;99.90
41481;DHT22;27217;51.220;5.308;2022-10-20T08:31:09;15.30;99.90
41481;DHT22;27217;51.220;5.308;2022-10-20T08:33:35;15.40;99.90
41481;DHT22;27217;51.220;5.308;2022-10-20T08:36:02;15.60;99.90
41481;DHT22;27217;51.220;5.308;2022-10-20T08:38:28;15.70;99.90
41481;DHT22;27217;51.220;5.308;2022-10-20T08:40:54;15.80;99.90
41481;DHT22;27217;51.220;5.308;2022-10-20T08:43:20;15.80;99.90
41481;DHT22;27217;51.220;5.308;2022-10-20T08:45:46;15.80;99.90
41481;DHT22;27217;51.220;5.308;2022-10-20T08:48:25;15.80;99.90
41481;DHT22;27217;51.220;5.308;2022-10-20T08:51:02;15.80;99.90
41481;DHT22;27217;51.220;5.308;2022-10-20T08:53:29;15.80;99.90
41481;DHT22;27217;51.220;5.308;2022-10-20T08:55:59;15.90;99.90
41481;DHT22;27217;51.220;5.308;2022-10-20T08:58:25;16.00;99.90
41481;DHT22;27217;51.220;5.308;2022-10-20T09:00:56;16.00;99.90
41481;DHT22;27217;51.220;5.308;2022-10-20T09:03:28;16.10;99.90
41481;DHT22;27217;51.220;5.308;2022-10-20T09:06:01;16.20;99.90
41481;DHT22;27217;51.220;5.308;2022-10-20T09:08:32;16.30;99.90
41481;DHT22;27217;51.220;5.308;2022-10-20T09:10:59;16.20;99.90
41481;DHT22;27217;51.220;5.308;2022-10-20T09:13:30;16.10;99.90
41481;DHT22;27217;51.220;5.308;2022-10-20T09:16:00;16.30;99.90
41481;DHT22;27217;51.220;5.308;2022-10-20T09:18:28;16.30;99.90
41481;DHT22;27217;51.220;5.308;2022-10-20T09:21:08;16.30;99.90
41481;DHT22;27217;51.220;5.308;2022-10-20T09:23:45;16.30;99.90
41481;DHT22;27217;51.220;5.308;2022-10-20T09:26:15;16.10;99.90
41481;DHT22;27217;51.220;5.308;2022-10-20T09:28:41;16.00;99.90
41481;DHT22;27217;51.220;5.308;2022-10-20T09:31:22;15.90;99.90
41481;DHT22;27217;51.220;5.308;2022-10-20T09:33:48;16.00;99.90
41481;DHT22;27217;51.220;5.308;2022-10-20T09:36:16;16.20;99.90
41481;DHT22;27217;51.220;5.308;2022-10-20T09:38:46;16.20;99.90
41481;DHT22;27217;51.220;5.308;2022-10-20T09:41:33;16.10;99.90
41481;DHT22;27217;51.220;5.308;2022-10-20T09:44:13;16.00;99.90
41481;DHT22;27217;51.220;5.308;2022-10-20T09:46:49;15.70;99.90
41481;DHT22;27217;51.220;5.308;2022-10-20T09:49:32;15.70;99.90
41481;DHT22;27217;51.220;5.308;2022-10-20T09:52:02;15.80;99.90
41481;DHT22;27217;51.220;5.308;2022-10-20T09:54:29;15.50;99.90
41481;DHT22;27217;51.220;5.308;2022-10-20T09:57:06;15.30;99.90
41481;DHT22;27217;51.220;5.308;2022-10-20T09:59:37;15.30;99.90
41481;DHT22;27217;51.220;5.308;2022-10-20T10:04:48;15.30;99.90
41481;DHT22;27217;51.220;5.308;2022-10-20T10:09:59;15.40;99.90
41481;DHT22;27217;51.220;5.308;2022-10-20T10:12:28;15.40;99.90
41481;DHT22;27217;51.220;5.308;2022-10-20T10:14:58;15.40;99.90
41481;DHT22;27217;51.220;5.308;2022-10-20T10:17:34;15.40;99.90
41481;DHT22;27217;51.220;5.308;2022-10-20T10:22:39;15.50;99.90
41481;DHT22;27217;51.220;5.308;2022-10-20T10:25:06;15.30;99.90
41481;DHT22;27217;51.220;5.308;2022-10-20T10:27:39;15.40;99.90
41481;DHT22;27217;51.220;5.308;2022-10-20T10:32:51;15.40;99.90
41481;DHT22;27217;51.220;5.308;2022-10-20T10:37:44;15.50;99.90
41481;DHT22;27217;51.220;5.308;2022-10-20T10:40:19;15.50;99.90
41481;DHT22;27217;51.220;5.308;2022-10-20T10:45:51;15.40;99.90
41481;DHT22;27217;51.220;5.308;2022-10-20T10:48:51;15.50;99.90
41481;DHT22;27217;51.220;5.308;2022-10-20T10:51:40;15.60;99.90
41481;DHT22;27217;51.220;5.308;2022-10-20T10:57:30;15.60;99.90
41481;DHT22;27217;51.220;5.308;2022-10-20T11:00:04;15.40;99.90
41481;DHT22;27217;51.220;5.308;2022-10-20T11:14:22;15.40;99.90
41481;DHT22;27217;51.220;5.308;2022-10-20T11:17:14;15.70;99.90
41481;DHT22;27217;51.220;5.308;2022-10-20T11:25:11;15.80;99.90
41481;DHT22;27217;51.220;5.308;2022-10-20T11:27:38;15.80;99.90
41481;DHT22;27217;51.220;5.308;2022-10-20T11:30:14;15.90;99.90
41481;DHT22;27217;51.220;5.308;2022-10-20T11:33:03;15.90;99.90
41481;DHT22;27217;51.220;5.308;2022-10-20T11:35:44;16.10;99.90
41481;DHT22;27217;51.220;5.308;2022-10-20T11:41:34;16.40;99.90
41481;DHT22;27217;51.220;5.308;2022-10-20T11:44:15;16.60;99.90
41481;DHT22;27217;51.220;5.308;2022-10-20T11:46:49;16.90;99.90
41481;DHT22;27217;51.220;5.308;2022-10-20T11:49:17;16.80;99.90
41481;DHT22;27217;51.220;5.308;2022-10-20T11:55:00;16.80;99.90
41481;DHT22;27217;51.220;5.308;2022-10-20T12:14:05;18.00;99.90
41481;DHT22;27217;51.220;5.308;2022-10-20T12:19:28;21.30;99.90
41481;DHT22;27217;51.220;5.308;2022-10-20T12:21:55;21.70;99.90
41481;DHT22;27217;51.220;5.308;2022-10-20T12:24:38;23.00;99.90
41481;DHT22;27217;51.220;5.308;2022-10-20T12:37:36;25.20;99.90
41481;DHT22;27217;51.220;5.308;2022-10-20T12:42:44;26.20;99.90
41481;DHT22;27217;51.220;5.308;2022-10-20T12:45:38;26.60;99.90
41481;DHT22;27217;51.220;5.308;2022-10-20T12:48:08;26.20;99.90
41481;DHT22;27217;51.220;5.308;2022-10-20T12:50:42;24.60;99.90
41481;DHT22;27217;51.220;5.308;2022-10-20T12:55:43;23.80;99.90
41481;DHT22;27217;51.220;5.308;2022-10-20T13:03:39;25.30;99.90
41481;DHT22;27217;51.220;5.308;2022-10-20T13:12:45;24.30;99.90
41481;DHT22;27217;51.220;5.308;2022-10-20T13:18:52;23.80;99.90
41481;DHT22;27217;51.220;5.308;2022-10-20T13:21:35;23.70;99.90
41481;DHT22;27217;51.220;5.308;2022-10-20T13:24:36;25.70;99.90
41481;DHT22;27217;51.220;5.308;2022-10-20T13:27:36;27.30;99.90
41481;DHT22;27217;51.220;5.308;2022-10-20T13:59:57;29.60;99.20
41481;DHT22;27217;51.220;5.308;2022-10-20T14:46:45;28.80;99.70
41481;DHT22;27217;51.220;5.308;2022-10-20T14:49:18;26.50;99.90
41481;DHT22;27217;51.220;5.308;2022-10-20T14:52:42;26.10;99.90
41481;DHT22;27217;51.220;5.308;2022-10-20T14:54:50;26.20;99.90
41481;DHT22;27217;51.220;5.308;2022-10-20T15:00:00;25.30;99.90
41481;DHT22;27217;51.220;5.308;2022-10-20T15:02:38;25.70;99.90
41481;DHT22;27217;51.220;5.308;2022-10-20T15:07:53;24.90;99.90
41481;DHT22;27217;51.220;5.308;2022-10-20T15:10:24;24.60;99.90
41481;DHT22;27217;51.220;5.308;2022-10-20T15:12:52;25.30;99.90
41481;DHT22;27217;51.220;5.308;2022-10-20T15:15:25;26.80;99.90
41481;DHT22;27217;51.220;5.308;2022-10-20T15:18:12;27.90;99.90
41481;DHT22;27217;51.220;5.308;2022-10-20T15:20:41;27.70;99.90
41481;DHT22;27217;51.220;5.308;2022-10-20T15:23:20;27.50;99.90
41481;DHT22;27217;51.220;5.308;2022-10-20T15:28:43;27.20;99.90
41481;DHT22;27217;51.220;5.308;2022-10-20T15:33:39;25.40;99.90
41481;DHT22;27217;51.220;5.308;2022-10-20T15:36:16;24.40;99.90
41481;DHT22;27217;51.220;5.308;2022-10-20T15:38:45;24.00;99.90
41481;DHT22;27217;51.220;5.308;2022-10-20T15:41:18;23.30;99.90
41481;DHT22;27217;51.220;5.308;2022-10-20T15:43:44;22.70;99.90
41481;DHT22;27217;51.220;5.308;2022-10-20T15:46:13;22.40;99.90
41481;DHT22;27217;51.220;5.308;2022-10-20T15:48:40;22.20;99.90
41481;DHT22;27217;51.220;5.308;2022-10-20T15:51:30;22.20;99.90
41481;DHT22;27217;51.220;5.308;2022-10-20T15:53:56;21.90;99.90
41481;DHT22;27217;51.220;5.308;2022-10-20T15:56:23;21.60;99.90
41481;DHT22;27217;51.220;5.308;2022-10-20T15:58:48;21.50;99.90
41481;DHT22;27217;51.220;5.308;2022-10-20T16:01:16;21.60;99.90
41481;DHT22;27217;51.220;5.308;2022-10-20T16:03:42;21.40;99.90
41481;DHT22;27217;51.220;5.308;2022-10-20T16:06:12;21.30;99.90
41481;DHT22;27217;51.220;5.308;2022-10-20T16:08:42;21.20;99.90
41481;DHT22;27217;51.220;5.308;2022-10-20T16:11:09;21.00;99.90
41481;DHT22;27217;51.220;5.308;2022-10-20T16:13:35;20.90;99.90
41481;DHT22;27217;51.220;5.308;2022-10-20T16:16:03;20.70;99.90
41481;DHT22;27217;51.220;5.308;2022-10-20T16:18:32;20.40;99.90
41481;DHT22;27217;51.220;5.308;2022-10-20T16:20:59;20.40;99.90
41481;DHT22;27217;51.220;5.308;2022-10-20T16:23:25;20.30;99.90
41481;DHT22;27217;51.220;5.308;2022-10-20T16:25:51;20.30;99.90
41481;DHT22;27217;51.220;5.308;2022-10-20T16:28:17;20.10;99.90
41481;DHT22;27217;51.220;5.308;2022-10-20T16:30:45;19.90;99.90
41481;DHT22;27217;51.220;5.308;2022-10-20T16:33:10;19.90;99.90
41481;DHT22;27217;51.220;5.308;2022-10-20T16:35:43;19.90;99.90
41481;DHT22;27217;51.220;5.308;2022-10-20T16:38:09;19.70;99.90
41481;DHT22;27217;51.220;5.308;2022-10-20T16:40:35;19.60;99.90
41481;DHT22;27217;51.220;5.308;2022-10-20T16:43:01;19.50;99.90
41481;DHT22;27217;51.220;5.308;2022-10-20T16:45:27;19.40;99.90
41481;DHT22;27217;51.220;5.308;2022-10-20T16:47:53;19.30;99.90
41481;DHT22;27217;51.220;5.308;2022-10-20T16:50:19;19.20;99.90
41481;DHT22;27217;51.220;5.308;2022-10-20T16:52:46;19.20;99.90
41481;DHT22;27217;51.220;5.308;2022-10-20T16:55:12;19.10;99.90
41481;DHT22;27217;51.220;5.308;2022-10-20T16:57:37;19.20;99.90
41481;DHT22;27217;51.220;5.308;2022-10-20T17:00:06;19.10;99.90
41481;DHT22;27217;51.220;5.308;2022-10-20T17:02:34;19.00;99.90
41481;DHT22;27217;51.220;5.308;2022-10-20T17:04:59;18.90;99.90
41481;DHT22;27217;51.220;5.308;2022-10-20T17:07:26;18.90;99.90
41481;DHT22;27217;51.220;5.308;2022-10-20T17:09:51;18.80;99.90
41481;DHT22;27217;51.220;5.308;2022-10-20T17:12:17;18.80;99.90
41481;DHT22;27217;51.220;5.308;2022-10-20T17:14:43;18.70;99.90
41481;DHT22;27217;51.220;5.308;2022-10-20T17:17:10;18.60;99.90
41481;DHT22;27217;51.220;5.308;2022-10-20T17:19:36;18.40;99.90
41481;DHT22;27217;51.220;5.308;2022-10-20T17:22:02;18.30;99.90
41481;DHT22;27217;51.220;5.308;2022-10-20T17:24:28;18.20;99.90
41481;DHT22;27217;51.220;5.308;2022-10-20T17:26:54;18.30;99.90
41481;DHT22;27217;51.220;5.308;2022-10-20T17:29:20;18.20;99.90
41481;DHT22;27217;51.220;5.308;2022-10-20T17:31:46;18.20;99.90
41481;DHT22;27217;51.220;5.308;2022-10-20T17:34:12;18.00;99.90
41481;DHT22;27217;51.220;5.308;2022-10-20T17:36:37;18.00;99.90
41481;DHT22;27217;51.220;5.308;2022-10-20T17:39:05;18.00;99.90
41481;DHT22;27217;51.220;5.308;2022-10-20T17:41:31;18.00;99.90
41481;DHT22;27217;51.220;5.308;2022-10-20T17:44:02;18.10;99.90
41481;DHT22;27217;51.220;5.308;2022-10-20T17:46:28;18.10;99.90
41481;DHT22;27217;51.220;5.308;2022-10-20T17:48:54;18.00;99.90
41481;DHT22;27217;51.220;5.308;2022-10-20T17:51:24;17.90;99.90
41481;DHT22;27217;51.220;5.308;2022-10-20T17:53:51;17.80;99.90
41481;DHT22;27217;51.220;5.308;2022-10-20T17:56:31;17.90;99.90
41481;DHT22;27217;51.220;5.308;2022-10-20T17:58:58;17.90;99.90
41481;DHT22;27217;51.220;5.308;2022-10-20T18:01:27;17.90;99.90
41481;DHT22;27217;51.220;5.308;2022-10-20T18:04:06;17.90;99.90
41481;DHT22;27217;51.220;5.308;2022-10-20T18:06:33;18.00;99.90
41481;DHT22;27217;51.220;5.308;2022-10-20T18:09:02;18.10;99.90
41481;DHT22;27217;51.220;5.308;2022-10-20T18:11:31;18.10;99.90
41481;DHT22;27217;51.220;5.308;2022-10-20T18:13:58;17.90;99.90
41481;DHT22;27217;51.220;5.308;2022-10-20T18:16:26;17.90;99.90
41481;DHT22;27217;51.220;5.308;2022-10-20T18:18:54;17.90;99.90
41481;DHT22;27217;51.220;5.308;2022-10-20T18:21:26;17.90;99.90
41481;DHT22;27217;51.220;5.308;2022-10-20T18:23:59;17.70;99.90
41481;DHT22;27217;51.220;5.308;2022-10-20T18:26:29;17.80;99.90
41481;DHT22;27217;51.220;5.308;2022-10-20T18:28:56;17.80;99.90
41481;DHT22;27217;51.220;5.308;2022-10-20T18:31:25;17.80;99.90
41481;DHT22;27217;51.220;5.308;2022-10-20T18:33:58;17.80;99.90
41481;DHT22;27217;51.220;5.308;2022-10-20T18:36:26;18.00;99.90
41481;DHT22;27217;51.220;5.308;2022-10-20T18:38:52;17.90;99.90
41481;DHT22;27217;51.220;5.308;2022-10-20T18:41:22;17.80;99.90
41481;DHT22;27217;51.220;5.308;2022-10-20T18:43:52;17.80;99.90
41481;DHT22;27217;51.220;5.308;2022-10-20T18:46:18;17.90;99.90
41481;DHT22;27217;51.220;5.308;2022-10-20T18:48:43;18.00;99.90
41481;DHT22;27217;51.220;5.308;2022-10-20T18:51:10;17.90;99.90
41481;DHT22;27217;51.220;5.308;2022-10-20T18:53:37;17.90;99.90
41481;DHT22;27217;51.220;5.308;2022-10-20T18:56:09;18.10;99.90
41481;DHT22;27217;51.220;5.308;2022-10-20T18:58:39;18.00;99.90
41481;DHT22;27217;51.220;5.308;2022-10-20T19:01:07;18.00;99.90
41481;DHT22;27217;51.220;5.308;2022-10-20T19:03:35;18.00;99.90
41481;DHT22;27217;51.220;5.308;2022-10-20T19:06:10;18.00;99.90
41481;DHT22;27217;51.220;5.308;2022-10-20T19:08:38;17.90;99.90